sensor_id;sensor_type;location;lat;lon;timestamp;P1;durP1;ratioP1;P2;durP2;ratioP2
39728;SDS011;25402;42.004;23.088;2023-03-02T00:00:52;14.85;;;8.48;;
39728;SDS011;25402;42.004;23.088;2023-03-02T00:03:20;14.90;;;8.75;;
39728;SDS011;25402;42.004;23.088;2023-03-02T00:05:48;14.63;;;9.05;;
39728;SDS011;25402;42.004;23.088;2023-03-02T00:08:15;15.00;;;8.75;;
39728;SDS011;25402;42.004;23.088;2023-03-02T00:10:43;17.23;;;9.13;;
39728;SDS011;25402;42.004;23.088;2023-03-02T00:13:10;14.23;;;8.93;;
39728;SDS011;25402;42.004;23.088;2023-03-02T00:15:37;17.05;;;9.50;;
39728;SDS011;25402;42.004;23.088;2023-03-02T00:18:03;17.48;;;9.35;;
39728;SDS011;25402;42.004;23.088;2023-03-02T00:20:30;14.57;;;8.75;;
39728;SDS011;25402;42.004;23.088;2023-03-02T00:23:00;16.63;;;9.18;;
39728;SDS011;25402;42.004;23.088;2023-03-02T00:25:26;13.38;;;8.07;;
39728;SDS011;25402;42.004;23.088;2023-03-02T00:27:53;14.15;;;8.73;;
39728;SDS011;25402;42.004;23.088;2023-03-02T00:30:20;19.00;;;9.20;;
39728;SDS011;25402;42.004;23.088;2023-03-02T00:32:46;15.45;;;8.70;;
39728;SDS011;25402;42.004;23.088;2023-03-02T00:35:13;17.73;;;9.20;;
39728;SDS011;25402;42.004;23.088;2023-03-02T00:37:39;17.40;;;9.32;;
39728;SDS011;25402;42.004;23.088;2023-03-02T00:40:08;26.88;;;12.18;;
39728;SDS011;25402;42.004;23.088;2023-03-02T00:42:35;25.65;;;12.23;;
39728;SDS011;25402;42.004;23.088;2023-03-02T00:45:02;22.23;;;10.23;;
39728;SDS011;25402;42.004;23.088;2023-03-02T00:47:29;19.88;;;9.52;;
39728;SDS011;25402;42.004;23.088;2023-03-02T00:49:56;19.58;;;10.15;;
39728;SDS011;25402;42.004;23.088;2023-03-02T00:52:22;20.10;;;9.23;;
39728;SDS011;25402;42.004;23.088;2023-03-02T00:54:49;18.77;;;10.27;;
39728;SDS011;25402;42.004;23.088;2023-03-02T00:57:17;17.40;;;8.98;;
39728;SDS011;25402;42.004;23.088;2023-03-02T00:59:43;15.63;;;8.85;;
39728;SDS011;25402;42.004;23.088;2023-03-02T01:02:10;19.08;;;8.23;;
39728;SDS011;25402;42.004;23.088;2023-03-02T01:04:37;16.00;;;8.45;;
39728;SDS011;25402;42.004;23.088;2023-03-02T01:07:05;18.52;;;8.50;;
39728;SDS011;25402;42.004;23.088;2023-03-02T01:09:32;17.45;;;9.10;;
39728;SDS011;25402;42.004;23.088;2023-03-02T01:11:58;14.10;;;8.85;;
39728;SDS011;25402;42.004;23.088;2023-03-02T01:14:26;15.40;;;8.52;;
39728;SDS011;25402;42.004;23.088;2023-03-02T01:16:53;14.85;;;8.50;;
39728;SDS011;25402;42.004;23.088;2023-03-02T01:19:20;17.90;;;9.15;;
39728;SDS011;25402;42.004;23.088;2023-03-02T01:21:46;16.10;;;8.85;;
39728;SDS011;25402;42.004;23.088;2023-03-02T01:24:13;19.45;;;8.55;;
39728;SDS011;25402;42.004;23.088;2023-03-02T01:26:39;21.70;;;9.15;;
39728;SDS011;25402;42.004;23.088;2023-03-02T01:29:06;18.25;;;9.52;;
39728;SDS011;25402;42.004;23.088;2023-03-02T01:31:34;14.52;;;9.02;;
39728;SDS011;25402;42.004;23.088;2023-03-02T01:34:00;14.35;;;8.85;;
39728;SDS011;25402;42.004;23.088;2023-03-02T01:36:27;22.38;;;8.48;;
39728;SDS011;25402;42.004;23.088;2023-03-02T01:38:53;14.40;;;9.00;;
39728;SDS011;25402;42.004;23.088;2023-03-02T01:41:20;16.60;;;9.77;;
39728;SDS011;25402;42.004;23.088;2023-03-02T01:43:46;14.85;;;8.52;;
39728;SDS011;25402;42.004;23.088;2023-03-02T01:46:13;14.57;;;8.93;;
39728;SDS011;25402;42.004;23.088;2023-03-02T01:48:44;15.85;;;8.38;;
39728;SDS011;25402;42.004;23.088;2023-03-02T01:51:11;15.63;;;8.85;;
39728;SDS011;25402;42.004;23.088;2023-03-02T01:53:40;19.35;;;9.13;;
39728;SDS011;25402;42.004;23.088;2023-03-02T01:56:10;18.15;;;9.50;;
39728;SDS011;25402;42.004;23.088;2023-03-02T01:58:37;15.45;;;8.75;;
39728;SDS011;25402;42.004;23.088;2023-03-02T02:01:04;18.75;;;9.38;;
39728;SDS011;25402;42.004;23.088;2023-03-02T02:03:39;18.52;;;9.23;;
39728;SDS011;25402;42.004;23.088;2023-03-02T02:06:10;16.67;;;9.10;;
39728;SDS011;25402;42.004;23.088;2023-03-02T02:08:41;15.77;;;8.70;;
39728;SDS011;25402;42.004;23.088;2023-03-02T02:11:08;19.17;;;9.60;;
39728;SDS011;25402;42.004;23.088;2023-03-02T02:13:34;17.88;;;9.50;;
39728;SDS011;25402;42.004;23.088;2023-03-02T02:16:01;17.83;;;9.70;;
39728;SDS011;25402;42.004;23.088;2023-03-02T02:18:27;18.30;;;9.32;;
39728;SDS011;25402;42.004;23.088;2023-03-02T02:20:54;16.42;;;9.40;;
39728;SDS011;25402;42.004;23.088;2023-03-02T02:23:26;14.50;;;8.90;;
39728;SDS011;25402;42.004;23.088;2023-03-02T02:26:05;17.42;;;9.70;;
39728;SDS011;25402;42.004;23.088;2023-03-02T02:28:34;16.75;;;9.00;;
39728;SDS011;25402;42.004;23.088;2023-03-02T02:31:03;14.98;;;9.15;;
39728;SDS011;25402;42.004;23.088;2023-03-02T02:33:31;18.00;;;9.55;;
39728;SDS011;25402;42.004;23.088;2023-03-02T02:36:01;18.98;;;9.32;;
39728;SDS011;25402;42.004;23.088;2023-03-02T02:38:29;17.67;;;9.85;;
39728;SDS011;25402;42.004;23.088;2023-03-02T02:40:56;18.77;;;9.40;;
39728;SDS011;25402;42.004;23.088;2023-03-02T02:43:25;18.20;;;10.07;;
39728;SDS011;25402;42.004;23.088;2023-03-02T02:45:54;19.25;;;9.95;;
39728;SDS011;25402;42.004;23.088;2023-03-02T02:48:22;16.17;;;10.32;;
39728;SDS011;25402;42.004;23.088;2023-03-02T02:50:49;18.50;;;9.65;;
39728;SDS011;25402;42.004;23.088;2023-03-02T02:53:18;17.70;;;9.77;;
39728;SDS011;25402;42.004;23.088;2023-03-02T02:55:45;15.13;;;8.68;;
39728;SDS011;25402;42.004;23.088;2023-03-02T02:58:19;17.48;;;9.70;;
39728;SDS011;25402;42.004;23.088;2023-03-02T03:00:49;16.60;;;9.65;;
39728;SDS011;25402;42.004;23.088;2023-03-02T03:03:18;19.00;;;9.52;;
39728;SDS011;25402;42.004;23.088;2023-03-02T03:05:54;20.25;;;9.55;;
39728;SDS011;25402;42.004;23.088;2023-03-02T03:11:06;15.05;;;9.48;;
39728;SDS011;25402;42.004;23.088;2023-03-02T03:13:32;18.52;;;9.25;;
39728;SDS011;25402;42.004;23.088;2023-03-02T03:16:00;16.58;;;9.50;;
39728;SDS011;25402;42.004;23.088;2023-03-02T03:18:28;17.17;;;9.52;;
39728;SDS011;25402;42.004;23.088;2023-03-02T03:20:55;16.08;;;9.52;;
39728;SDS011;25402;42.004;23.088;2023-03-02T03:23:22;16.75;;;9.70;;
39728;SDS011;25402;42.004;23.088;2023-03-02T03:25:49;17.30;;;9.52;;
39728;SDS011;25402;42.004;23.088;2023-03-02T03:28:16;15.63;;;9.13;;
39728;SDS011;25402;42.004;23.088;2023-03-02T03:30:43;18.17;;;10.25;;
39728;SDS011;25402;42.004;23.088;2023-03-02T03:33:11;16.25;;;9.98;;
39728;SDS011;25402;42.004;23.088;2023-03-02T03:35:37;20.20;;;9.98;;
39728;SDS011;25402;42.004;23.088;2023-03-02T03:38:04;29.13;;;9.93;;
39728;SDS011;25402;42.004;23.088;2023-03-02T03:40:31;16.77;;;9.25;;
39728;SDS011;25402;42.004;23.088;2023-03-02T03:42:59;35.92;;;10.45;;
39728;SDS011;25402;42.004;23.088;2023-03-02T03:45:25;22.05;;;9.45;;
39728;SDS011;25402;42.004;23.088;2023-03-02T03:47:52;17.92;;;9.50;;
39728;SDS011;25402;42.004;23.088;2023-03-02T03:50:20;21.05;;;9.82;;
39728;SDS011;25402;42.004;23.088;2023-03-02T03:52:46;23.88;;;12.80;;
39728;SDS011;25402;42.004;23.088;2023-03-02T03:55:13;21.02;;;11.50;;
39728;SDS011;25402;42.004;23.088;2023-03-02T03:57:40;19.90;;;10.25;;
39728;SDS011;25402;42.004;23.088;2023-03-02T04:00:07;18.58;;;9.57;;
39728;SDS011;25402;42.004;23.088;2023-03-02T04:02:34;25.25;;;9.13;;
39728;SDS011;25402;42.004;23.088;2023-03-02T04:05:01;20.33;;;9.95;;
39728;SDS011;25402;42.004;23.088;2023-03-02T04:07:31;18.08;;;8.50;;
39728;SDS011;25402;42.004;23.088;2023-03-02T04:09:58;21.73;;;9.25;;
39728;SDS011;25402;42.004;23.088;2023-03-02T04:12:28;18.33;;;9.35;;
39728;SDS011;25402;42.004;23.088;2023-03-02T04:14:55;17.10;;;9.15;;
39728;SDS011;25402;42.004;23.088;2023-03-02T04:17:21;20.63;;;8.90;;
39728;SDS011;25402;42.004;23.088;2023-03-02T04:19:48;17.35;;;8.82;;
39728;SDS011;25402;42.004;23.088;2023-03-02T04:22:15;18.30;;;9.40;;
39728;SDS011;25402;42.004;23.088;2023-03-02T04:24:43;22.05;;;9.68;;
39728;SDS011;25402;42.004;23.088;2023-03-02T04:27:09;16.50;;;9.25;;
39728;SDS011;25402;42.004;23.088;2023-03-02T04:29:36;16.98;;;9.32;;
39728;SDS011;25402;42.004;23.088;2023-03-02T04:32:03;20.13;;;9.48;;
39728;SDS011;25402;42.004;23.088;2023-03-02T04:34:29;16.85;;;9.07;;
39728;SDS011;25402;42.004;23.088;2023-03-02T04:36:56;14.15;;;8.25;;
39728;SDS011;25402;42.004;23.088;2023-03-02T04:39:23;18.67;;;8.55;;
39728;SDS011;25402;42.004;23.088;2023-03-02T04:41:51;17.13;;;9.02;;
39728;SDS011;25402;42.004;23.088;2023-03-02T04:44:17;15.60;;;8.70;;
39728;SDS011;25402;42.004;23.088;2023-03-02T04:46:44;18.58;;;9.38;;
39728;SDS011;25402;42.004;23.088;2023-03-02T04:49:11;17.60;;;9.45;;
39728;SDS011;25402;42.004;23.088;2023-03-02T04:51:39;19.00;;;10.60;;
39728;SDS011;25402;42.004;23.088;2023-03-02T04:54:07;20.38;;;10.93;;
39728;SDS011;25402;42.004;23.088;2023-03-02T04:56:33;12.63;;;6.75;;
39728;SDS011;25402;42.004;23.088;2023-03-02T04:59:01;12.52;;;6.25;;
39728;SDS011;25402;42.004;23.088;2023-03-02T05:01:28;16.27;;;5.93;;
39728;SDS011;25402;42.004;23.088;2023-03-02T05:03:55;16.00;;;5.75;;
39728;SDS011;25402;42.004;23.088;2023-03-02T05:06:21;13.25;;;7.28;;
39728;SDS011;25402;42.004;23.088;2023-03-02T05:08:49;12.27;;;7.07;;
39728;SDS011;25402;42.004;23.088;2023-03-02T05:11:16;16.77;;;7.28;;
39728;SDS011;25402;42.004;23.088;2023-03-02T05:13:47;13.55;;;7.32;;
39728;SDS011;25402;42.004;23.088;2023-03-02T05:16:14;15.93;;;8.13;;
39728;SDS011;25402;42.004;23.088;2023-03-02T05:18:41;13.77;;;7.70;;
39728;SDS011;25402;42.004;23.088;2023-03-02T05:21:08;13.13;;;7.28;;
39728;SDS011;25402;42.004;23.088;2023-03-02T05:23:34;14.75;;;8.15;;
39728;SDS011;25402;42.004;23.088;2023-03-02T05:26:01;12.52;;;7.63;;
39728;SDS011;25402;42.004;23.088;2023-03-02T05:28:28;14.05;;;7.72;;
39728;SDS011;25402;42.004;23.088;2023-03-02T05:30:54;12.75;;;7.38;;
39728;SDS011;25402;42.004;23.088;2023-03-02T05:33:22;11.52;;;7.80;;
39728;SDS011;25402;42.004;23.088;2023-03-02T05:35:49;14.43;;;9.00;;
39728;SDS011;25402;42.004;23.088;2023-03-02T05:38:15;13.00;;;7.80;;
39728;SDS011;25402;42.004;23.088;2023-03-02T05:40:42;18.25;;;11.40;;
39728;SDS011;25402;42.004;23.088;2023-03-02T05:43:09;20.25;;;11.13;;
39728;SDS011;25402;42.004;23.088;2023-03-02T05:45:36;12.95;;;8.40;;
39728;SDS011;25402;42.004;23.088;2023-03-02T05:48:03;17.98;;;10.48;;
39728;SDS011;25402;42.004;23.088;2023-03-02T05:50:32;22.20;;;12.20;;
39728;SDS011;25402;42.004;23.088;2023-03-02T05:52:59;17.33;;;9.73;;
39728;SDS011;25402;42.004;23.088;2023-03-02T05:55:26;15.27;;;9.63;;
39728;SDS011;25402;42.004;23.088;2023-03-02T05:58:00;14.32;;;9.10;;
39728;SDS011;25402;42.004;23.088;2023-03-02T06:00:27;16.50;;;9.50;;
39728;SDS011;25402;42.004;23.088;2023-03-02T06:02:54;14.65;;;8.95;;
39728;SDS011;25402;42.004;23.088;2023-03-02T06:05:21;16.35;;;10.18;;
39728;SDS011;25402;42.004;23.088;2023-03-02T06:07:50;17.98;;;9.90;;
39728;SDS011;25402;42.004;23.088;2023-03-02T06:10:16;16.73;;;9.30;;
39728;SDS011;25402;42.004;23.088;2023-03-02T06:12:43;19.20;;;10.48;;
39728;SDS011;25402;42.004;23.088;2023-03-02T06:15:10;19.08;;;10.00;;
39728;SDS011;25402;42.004;23.088;2023-03-02T06:17:36;21.70;;;10.48;;
39728;SDS011;25402;42.004;23.088;2023-03-02T06:20:03;18.20;;;9.43;;
39728;SDS011;25402;42.004;23.088;2023-03-02T06:22:34;20.63;;;9.05;;
39728;SDS011;25402;42.004;23.088;2023-03-02T06:25:04;15.48;;;9.05;;
39728;SDS011;25402;42.004;23.088;2023-03-02T06:27:31;23.75;;;10.00;;
39728;SDS011;25402;42.004;23.088;2023-03-02T06:29:58;22.55;;;12.68;;
39728;SDS011;25402;42.004;23.088;2023-03-02T06:32:24;24.42;;;13.02;;
39728;SDS011;25402;42.004;23.088;2023-03-02T06:34:51;18.27;;;11.32;;
39728;SDS011;25402;42.004;23.088;2023-03-02T06:37:17;24.88;;;12.13;;
39728;SDS011;25402;42.004;23.088;2023-03-02T06:39:44;29.73;;;12.05;;
39728;SDS011;25402;42.004;23.088;2023-03-02T06:42:16;25.77;;;13.20;;
39728;SDS011;25402;42.004;23.088;2023-03-02T06:44:45;21.38;;;11.88;;
39728;SDS011;25402;42.004;23.088;2023-03-02T06:47:12;24.23;;;13.18;;
39728;SDS011;25402;42.004;23.088;2023-03-02T06:49:39;20.92;;;12.00;;
39728;SDS011;25402;42.004;23.088;2023-03-02T06:52:05;26.55;;;12.90;;
39728;SDS011;25402;42.004;23.088;2023-03-02T06:54:32;31.83;;;14.90;;
39728;SDS011;25402;42.004;23.088;2023-03-02T06:56:59;27.73;;;15.57;;
39728;SDS011;25402;42.004;23.088;2023-03-02T06:59:27;28.20;;;13.88;;
39728;SDS011;25402;42.004;23.088;2023-03-02T07:01:54;28.85;;;13.77;;
39728;SDS011;25402;42.004;23.088;2023-03-02T07:04:21;38.38;;;15.70;;
39728;SDS011;25402;42.004;23.088;2023-03-02T07:06:47;29.02;;;13.10;;
39728;SDS011;25402;42.004;23.088;2023-03-02T07:09:14;20.98;;;11.20;;
39728;SDS011;25402;42.004;23.088;2023-03-02T07:11:56;17.60;;;10.15;;
39728;SDS011;25402;42.004;23.088;2023-03-02T07:14:23;18.95;;;9.90;;
39728;SDS011;25402;42.004;23.088;2023-03-02T07:16:51;17.55;;;9.45;;
39728;SDS011;25402;42.004;23.088;2023-03-02T07:19:18;17.85;;;9.77;;
39728;SDS011;25402;42.004;23.088;2023-03-02T07:21:45;19.73;;;10.52;;
39728;SDS011;25402;42.004;23.088;2023-03-02T07:24:13;18.10;;;10.90;;
39728;SDS011;25402;42.004;23.088;2023-03-02T07:26:40;18.48;;;9.43;;
39728;SDS011;25402;42.004;23.088;2023-03-02T07:29:07;16.48;;;10.10;;
39728;SDS011;25402;42.004;23.088;2023-03-02T07:31:34;28.38;;;10.90;;
39728;SDS011;25402;42.004;23.088;2023-03-02T07:34:02;18.83;;;10.07;;
39728;SDS011;25402;42.004;23.088;2023-03-02T07:36:29;17.85;;;9.52;;
39728;SDS011;25402;42.004;23.088;2023-03-02T07:38:56;17.88;;;10.35;;
39728;SDS011;25402;42.004;23.088;2023-03-02T07:41:22;20.63;;;11.02;;
39728;SDS011;25402;42.004;23.088;2023-03-02T07:43:49;20.60;;;11.18;;
39728;SDS011;25402;42.004;23.088;2023-03-02T07:46:15;19.20;;;10.68;;
39728;SDS011;25402;42.004;23.088;2023-03-02T07:48:42;19.23;;;10.30;;
39728;SDS011;25402;42.004;23.088;2023-03-02T07:51:10;19.30;;;10.90;;
39728;SDS011;25402;42.004;23.088;2023-03-02T07:53:37;18.90;;;10.55;;
39728;SDS011;25402;42.004;23.088;2023-03-02T07:56:07;21.33;;;11.20;;
39728;SDS011;25402;42.004;23.088;2023-03-02T07:58:34;19.08;;;10.27;;
39728;SDS011;25402;42.004;23.088;2023-03-02T08:01:01;18.33;;;10.55;;
39728;SDS011;25402;42.004;23.088;2023-03-02T08:03:27;20.17;;;12.70;;
39728;SDS011;25402;42.004;23.088;2023-03-02T08:05:54;42.70;;;22.35;;
39728;SDS011;25402;42.004;23.088;2023-03-02T08:08:22;40.47;;;23.25;;
39728;SDS011;25402;42.004;23.088;2023-03-02T08:10:49;33.05;;;18.20;;
39728;SDS011;25402;42.004;23.088;2023-03-02T08:13:17;26.98;;;14.82;;
39728;SDS011;25402;42.004;23.088;2023-03-02T08:15:44;20.63;;;11.00;;
39728;SDS011;25402;42.004;23.088;2023-03-02T08:18:11;17.40;;;9.88;;
39728;SDS011;25402;42.004;23.088;2023-03-02T08:20:38;23.70;;;10.85;;
39728;SDS011;25402;42.004;23.088;2023-03-02T08:23:05;21.88;;;10.02;;
39728;SDS011;25402;42.004;23.088;2023-03-02T08:25:33;19.65;;;9.85;;
39728;SDS011;25402;42.004;23.088;2023-03-02T08:28:00;16.23;;;9.23;;
39728;SDS011;25402;42.004;23.088;2023-03-02T08:30:28;18.83;;;10.07;;
39728;SDS011;25402;42.004;23.088;2023-03-02T08:32:58;19.15;;;9.48;;
39728;SDS011;25402;42.004;23.088;2023-03-02T08:35:24;15.30;;;9.77;;
39728;SDS011;25402;42.004;23.088;2023-03-02T08:37:51;21.10;;;9.15;;
39728;SDS011;25402;42.004;23.088;2023-03-02T08:40:18;19.45;;;9.65;;
39728;SDS011;25402;42.004;23.088;2023-03-02T08:42:46;16.88;;;9.13;;
39728;SDS011;25402;42.004;23.088;2023-03-02T08:45:14;16.98;;;9.57;;
39728;SDS011;25402;42.004;23.088;2023-03-02T08:47:40;17.63;;;9.57;;
39728;SDS011;25402;42.004;23.088;2023-03-02T08:50:08;14.38;;;9.07;;
39728;SDS011;25402;42.004;23.088;2023-03-02T08:52:35;12.98;;;8.65;;
39728;SDS011;25402;42.004;23.088;2023-03-02T08:55:02;18.45;;;9.52;;
39728;SDS011;25402;42.004;23.088;2023-03-02T08:57:28;18.17;;;8.80;;
39728;SDS011;25402;42.004;23.088;2023-03-02T08:59:56;16.90;;;8.90;;
39728;SDS011;25402;42.004;23.088;2023-03-02T09:02:23;21.77;;;9.13;;
39728;SDS011;25402;42.004;23.088;2023-03-02T09:04:49;23.75;;;11.88;;
39728;SDS011;25402;42.004;23.088;2023-03-02T09:07:16;26.05;;;9.70;;
39728;SDS011;25402;42.004;23.088;2023-03-02T09:09:43;15.43;;;9.57;;
39728;SDS011;25402;42.004;23.088;2023-03-02T09:12:10;20.95;;;10.57;;
39728;SDS011;25402;42.004;23.088;2023-03-02T09:14:36;22.15;;;9.48;;
39728;SDS011;25402;42.004;23.088;2023-03-02T09:17:04;18.45;;;10.05;;
39728;SDS011;25402;42.004;23.088;2023-03-02T09:19:31;20.17;;;9.93;;
39728;SDS011;25402;42.004;23.088;2023-03-02T09:22:05;19.15;;;10.82;;
39728;SDS011;25402;42.004;23.088;2023-03-02T09:24:32;21.58;;;9.60;;
39728;SDS011;25402;42.004;23.088;2023-03-02T09:26:58;21.80;;;10.55;;
39728;SDS011;25402;42.004;23.088;2023-03-02T09:29:25;21.38;;;11.10;;
39728;SDS011;25402;42.004;23.088;2023-03-02T09:31:52;19.45;;;10.75;;
39728;SDS011;25402;42.004;23.088;2023-03-02T09:34:20;23.98;;;11.05;;
39728;SDS011;25402;42.004;23.088;2023-03-02T09:36:47;21.15;;;9.90;;
39728;SDS011;25402;42.004;23.088;2023-03-02T09:39:14;24.15;;;11.98;;
39728;SDS011;25402;42.004;23.088;2023-03-02T09:47:11;19.70;;;10.05;;
39728;SDS011;25402;42.004;23.088;2023-03-02T09:49:45;25.45;;;12.25;;
39728;SDS011;25402;42.004;23.088;2023-03-02T09:52:18;25.17;;;12.70;;
39728;SDS011;25402;42.004;23.088;2023-03-02T09:54:47;19.40;;;10.38;;
39728;SDS011;25402;42.004;23.088;2023-03-02T09:57:18;34.10;;;11.50;;
39728;SDS011;25402;42.004;23.088;2023-03-02T09:59:47;27.50;;;12.65;;
39728;SDS011;25402;42.004;23.088;2023-03-02T10:02:19;21.00;;;11.80;;
39728;SDS011;25402;42.004;23.088;2023-03-02T10:04:50;23.58;;;12.02;;
39728;SDS011;25402;42.004;23.088;2023-03-02T10:07:19;29.30;;;12.18;;
39728;SDS011;25402;42.004;23.088;2023-03-02T10:09:47;27.77;;;11.60;;
39728;SDS011;25402;42.004;23.088;2023-03-02T10:12:19;21.08;;;11.70;;
39728;SDS011;25402;42.004;23.088;2023-03-02T10:14:52;35.90;;;12.57;;
39728;SDS011;25402;42.004;23.088;2023-03-02T10:20:04;30.05;;;12.35;;
39728;SDS011;25402;42.004;23.088;2023-03-02T10:22:35;30.88;;;14.30;;
39728;SDS011;25402;42.004;23.088;2023-03-02T10:25:07;28.95;;;12.23;;
39728;SDS011;25402;42.004;23.088;2023-03-02T10:27:38;35.05;;;12.13;;
39728;SDS011;25402;42.004;23.088;2023-03-02T10:30:07;27.33;;;14.27;;
39728;SDS011;25402;42.004;23.088;2023-03-02T10:32:41;37.22;;;14.98;;
39728;SDS011;25402;42.004;23.088;2023-03-02T10:35:15;27.85;;;15.13;;
39728;SDS011;25402;42.004;23.088;2023-03-02T10:37:42;27.67;;;15.43;;
39728;SDS011;25402;42.004;23.088;2023-03-02T10:40:10;28.83;;;13.57;;
39728;SDS011;25402;42.004;23.088;2023-03-02T10:42:41;28.63;;;14.30;;
39728;SDS011;25402;42.004;23.088;2023-03-02T10:45:13;29.15;;;14.93;;
39728;SDS011;25402;42.004;23.088;2023-03-02T10:47:44;26.92;;;13.27;;
39728;SDS011;25402;42.004;23.088;2023-03-02T10:50:21;25.90;;;11.65;;
39728;SDS011;25402;42.004;23.088;2023-03-02T10:52:48;27.58;;;12.90;;
39728;SDS011;25402;42.004;23.088;2023-03-02T10:55:16;29.20;;;12.82;;
39728;SDS011;25402;42.004;23.088;2023-03-02T10:57:43;22.40;;;11.88;;
39728;SDS011;25402;42.004;23.088;2023-03-02T11:00:14;20.02;;;11.38;;
39728;SDS011;25402;42.004;23.088;2023-03-02T11:02:48;21.88;;;12.73;;
39728;SDS011;25402;42.004;23.088;2023-03-02T11:05:25;23.13;;;11.75;;
39728;SDS011;25402;42.004;23.088;2023-03-02T11:07:53;24.83;;;12.55;;
39728;SDS011;25402;42.004;23.088;2023-03-02T11:10:20;21.30;;;10.98;;
39728;SDS011;25402;42.004;23.088;2023-03-02T11:12:48;22.30;;;11.23;;
39728;SDS011;25402;42.004;23.088;2023-03-02T11:15:17;25.63;;;12.15;;
39728;SDS011;25402;42.004;23.088;2023-03-02T11:17:45;22.35;;;10.93;;
39728;SDS011;25402;42.004;23.088;2023-03-02T11:20:13;24.83;;;11.80;;
39728;SDS011;25402;42.004;23.088;2023-03-02T11:22:44;26.85;;;11.85;;
39728;SDS011;25402;42.004;23.088;2023-03-02T11:25:17;21.60;;;10.38;;
39728;SDS011;25402;42.004;23.088;2023-03-02T11:27:47;20.45;;;11.75;;
39728;SDS011;25402;42.004;23.088;2023-03-02T11:30:18;24.73;;;11.68;;
39728;SDS011;25402;42.004;23.088;2023-03-02T11:32:48;22.17;;;11.30;;
39728;SDS011;25402;42.004;23.088;2023-03-02T11:35:19;26.77;;;13.15;;
39728;SDS011;25402;42.004;23.088;2023-03-02T11:37:49;24.23;;;11.55;;
39728;SDS011;25402;42.004;23.088;2023-03-02T11:40:18;20.05;;;11.63;;
39728;SDS011;25402;42.004;23.088;2023-03-02T11:42:46;27.48;;;11.80;;
39728;SDS011;25402;42.004;23.088;2023-03-02T11:45:15;21.55;;;10.65;;
39728;SDS011;25402;42.004;23.088;2023-03-02T11:47:44;21.00;;;11.35;;
39728;SDS011;25402;42.004;23.088;2023-03-02T11:50:13;25.42;;;12.10;;
39728;SDS011;25402;42.004;23.088;2023-03-02T11:52:41;26.42;;;12.85;;
39728;SDS011;25402;42.004;23.088;2023-03-02T11:55:15;18.40;;;11.77;;
39728;SDS011;25402;42.004;23.088;2023-03-02T11:57:43;19.60;;;10.88;;
39728;SDS011;25402;42.004;23.088;2023-03-02T12:00:14;26.65;;;11.85;;
39728;SDS011;25402;42.004;23.088;2023-03-02T12:02:43;19.65;;;11.48;;
39728;SDS011;25402;42.004;23.088;2023-03-02T12:05:22;20.13;;;11.27;;
39728;SDS011;25402;42.004;23.088;2023-03-02T12:07:55;23.40;;;11.57;;
39728;SDS011;25402;42.004;23.088;2023-03-02T12:10:23;35.90;;;14.63;;
39728;SDS011;25402;42.004;23.088;2023-03-02T12:12:57;24.55;;;11.93;;
39728;SDS011;25402;42.004;23.088;2023-03-02T12:17:52;22.15;;;11.05;;
39728;SDS011;25402;42.004;23.088;2023-03-02T12:20:23;25.88;;;10.98;;
39728;SDS011;25402;42.004;23.088;2023-03-02T12:22:51;20.95;;;12.45;;
39728;SDS011;25402;42.004;23.088;2023-03-02T12:25:26;20.38;;;10.48;;
39728;SDS011;25402;42.004;23.088;2023-03-02T12:27:53;20.45;;;9.68;;
39728;SDS011;25402;42.004;23.088;2023-03-02T12:30:21;26.58;;;11.27;;
39728;SDS011;25402;42.004;23.088;2023-03-02T12:32:59;20.00;;;11.38;;
39728;SDS011;25402;42.004;23.088;2023-03-02T12:35:27;29.77;;;12.15;;
39728;SDS011;25402;42.004;23.088;2023-03-02T12:37:54;21.98;;;11.55;;
39728;SDS011;25402;42.004;23.088;2023-03-02T12:40:36;19.45;;;11.05;;
39728;SDS011;25402;42.004;23.088;2023-03-02T12:45:54;19.83;;;10.02;;
39728;SDS011;25402;42.004;23.088;2023-03-02T12:50:50;18.30;;;10.95;;
39728;SDS011;25402;42.004;23.088;2023-03-02T12:53:18;18.50;;;10.00;;
39728;SDS011;25402;42.004;23.088;2023-03-02T12:55:46;17.30;;;10.25;;
39728;SDS011;25402;42.004;23.088;2023-03-02T12:58:15;17.73;;;10.23;;
39728;SDS011;25402;42.004;23.088;2023-03-02T13:00:47;18.52;;;9.43;;
39728;SDS011;25402;42.004;23.088;2023-03-02T13:03:14;16.60;;;9.35;;
39728;SDS011;25402;42.004;23.088;2023-03-02T13:05:41;17.73;;;9.98;;
39728;SDS011;25402;42.004;23.088;2023-03-02T13:08:10;28.85;;;15.25;;
39728;SDS011;25402;42.004;23.088;2023-03-02T13:10:40;21.35;;;9.80;;
39728;SDS011;25402;42.004;23.088;2023-03-02T13:13:14;19.73;;;9.20;;
39728;SDS011;25402;42.004;23.088;2023-03-02T13:15:46;16.48;;;9.95;;
39728;SDS011;25402;42.004;23.088;2023-03-02T13:18:13;28.30;;;12.55;;
39728;SDS011;25402;42.004;23.088;2023-03-02T13:20:40;19.88;;;9.70;;
39728;SDS011;25402;42.004;23.088;2023-03-02T13:23:08;18.13;;;10.07;;
39728;SDS011;25402;42.004;23.088;2023-03-02T13:25:35;22.00;;;9.65;;
39728;SDS011;25402;42.004;23.088;2023-03-02T13:28:02;18.20;;;9.65;;
39728;SDS011;25402;42.004;23.088;2023-03-02T13:30:34;20.05;;;9.15;;
39728;SDS011;25402;42.004;23.088;2023-03-02T13:33:15;21.42;;;11.02;;
39728;SDS011;25402;42.004;23.088;2023-03-02T13:35:44;18.75;;;9.30;;
39728;SDS011;25402;42.004;23.088;2023-03-02T13:38:12;15.80;;;9.60;;
39728;SDS011;25402;42.004;23.088;2023-03-02T13:40:40;17.30;;;9.23;;
39728;SDS011;25402;42.004;23.088;2023-03-02T13:45:55;15.80;;;9.02;;
39728;SDS011;25402;42.004;23.088;2023-03-02T13:48:23;19.63;;;8.85;;
39728;SDS011;25402;42.004;23.088;2023-03-02T13:50:52;18.00;;;9.10;;
39728;SDS011;25402;42.004;23.088;2023-03-02T13:53:19;16.17;;;8.80;;
39728;SDS011;25402;42.004;23.088;2023-03-02T13:55:46;20.55;;;8.40;;
39728;SDS011;25402;42.004;23.088;2023-03-02T13:58:14;19.38;;;8.98;;
39728;SDS011;25402;42.004;23.088;2023-03-02T14:00:41;22.27;;;10.23;;
39728;SDS011;25402;42.004;23.088;2023-03-02T14:03:11;24.38;;;9.82;;
39728;SDS011;25402;42.004;23.088;2023-03-02T14:05:45;28.23;;;12.35;;
39728;SDS011;25402;42.004;23.088;2023-03-02T14:08:12;28.15;;;15.25;;
39728;SDS011;25402;42.004;23.088;2023-03-02T14:10:38;31.25;;;15.65;;
39728;SDS011;25402;42.004;23.088;2023-03-02T14:13:06;21.13;;;11.20;;
39728;SDS011;25402;42.004;23.088;2023-03-02T14:15:34;18.13;;;9.18;;
39728;SDS011;25402;42.004;23.088;2023-03-02T14:18:01;21.63;;;9.63;;
39728;SDS011;25402;42.004;23.088;2023-03-02T14:20:29;27.75;;;9.40;;
39728;SDS011;25402;42.004;23.088;2023-03-02T14:22:55;24.35;;;9.88;;
39728;SDS011;25402;42.004;23.088;2023-03-02T14:25:22;19.38;;;9.50;;
39728;SDS011;25402;42.004;23.088;2023-03-02T14:27:49;22.77;;;9.65;;
39728;SDS011;25402;42.004;23.088;2023-03-02T14:30:17;17.27;;;9.85;;
39728;SDS011;25402;42.004;23.088;2023-03-02T14:32:44;31.02;;;11.30;;
39728;SDS011;25402;42.004;23.088;2023-03-02T14:35:12;23.15;;;9.82;;
39728;SDS011;25402;42.004;23.088;2023-03-02T14:37:42;30.60;;;12.73;;
39728;SDS011;25402;42.004;23.088;2023-03-02T14:40:13;27.30;;;11.63;;
39728;SDS011;25402;42.004;23.088;2023-03-02T14:42:40;36.40;;;11.70;;